createdAt,value
2022-08-05T00:01:36.018Z,29.67
2022-08-05T00:04:08.404Z,29.68
2022-08-05T00:06:36.450Z,29.66
2022-08-05T00:09:12.837Z,29.64
2022-08-05T00:11:48.426Z,29.53
2022-08-05T00:14:17.701Z,29.56
2022-08-05T00:16:53.060Z,29.51
2022-08-05T00:19:24.945Z,29.51
2022-08-05T00:22:02.525Z,29.46
2022-08-05T00:24:31.545Z,29.48
2022-08-05T00:26:59.528Z,29.40
2022-08-05T00:29:37.730Z,29.38
2022-08-05T00:32:12.341Z,29.34
2022-08-05T00:35:04.760Z,29.28
2022-08-05T00:37:51.343Z,29.25
2022-08-05T00:40:27.034Z,29.10
2022-08-05T00:42:58.127Z,29.01
2022-08-05T00:45:39.152Z,29.05
2022-08-05T00:48:12.997Z,29.00
2022-08-05T00:50:44.368Z,28.94
2022-08-05T00:54:00.643Z,28.93
2022-08-05T00:56:04.256Z,28.91
2022-08-05T00:58:32.441Z,28.76
2022-08-05T01:01:00.378Z,28.79
2022-08-05T01:03:31.068Z,28.74
2022-08-05T01:06:03.925Z,28.80
2022-08-05T01:08:42.818Z,28.77
2022-08-05T01:11:22.283Z,28.73
2022-08-05T01:14:08.964Z,28.66
2022-08-05T01:16:48.324Z,28.66
2022-08-05T01:19:56.213Z,28.52
2022-08-05T01:22:53.660Z,28.54
2022-08-05T01:25:53.637Z,28.42
2022-08-05T01:28:29.912Z,28.43
2022-08-05T01:31:02.983Z,28.28
2022-08-05T01:33:38.236Z,28.27
2022-08-05T01:36:16.039Z,28.21
2022-08-05T01:38:48.541Z,28.20
2022-08-05T01:41:21.876Z,28.11
2022-08-05T01:43:52.667Z,28.10
2022-08-05T01:46:42.668Z,28.01
2022-08-05T01:49:23.896Z,27.92
2022-08-05T01:51:58.462Z,27.90
2022-08-05T01:54:34.812Z,27.86
2022-08-05T01:58:09.947Z,27.86
2022-08-05T02:00:11.852Z,27.81
2022-08-05T02:02:46.553Z,27.74
2022-08-05T02:05:23.721Z,27.66
2022-08-05T02:08:00.076Z,27.63
2022-08-05T02:10:35.679Z,27.60
2022-08-05T02:13:15.835Z,27.59
2022-08-05T02:15:50.606Z,27.57
2022-08-05T02:18:30.615Z,27.50
2022-08-05T02:21:06.515Z,27.49
2022-08-05T02:23:46.083Z,27.33
2022-08-05T02:26:21.841Z,27.36
2022-08-05T02:28:51.405Z,27.34
2022-08-05T02:31:24.505Z,27.32
2022-08-05T02:33:57.296Z,27.33
2022-08-05T02:36:31.358Z,27.23
2022-08-05T02:39:02.705Z,27.18
2022-08-05T02:41:43.057Z,27.18
2022-08-05T02:44:24.266Z,27.16
2022-08-05T02:47:00.227Z,27.10
2022-08-05T02:49:36.762Z,27.10
2022-08-05T02:52:08.897Z,26.91
2022-08-05T02:54:41.353Z,26.94
2022-08-05T02:58:19.950Z,26.98
2022-08-05T03:00:01.346Z,26.88
2022-08-05T03:02:34.864Z,26.91
2022-08-05T03:05:04.230Z,26.93
2022-08-05T03:08:00.670Z,26.84
2022-08-05T03:10:24.938Z,26.88
2022-08-05T03:12:53.804Z,26.88
2022-08-05T03:15:23.787Z,26.87
2022-08-05T03:17:56.023Z,26.84
2022-08-05T03:20:26.387Z,26.69
2022-08-05T03:22:57.527Z,26.69
2022-08-05T03:25:32.786Z,26.75
2022-08-05T03:28:18.731Z,26.80
2022-08-05T03:30:49.536Z,26.78
2022-08-05T03:33:20.283Z,26.81
2022-08-05T03:35:51.732Z,26.75
2022-08-05T03:38:32.669Z,26.79
2022-08-05T03:41:04.042Z,26.78
2022-08-05T03:44:09.336Z,26.67
2022-08-05T03:46:29.505Z,26.66
2022-08-05T03:48:59.454Z,26.63
2022-08-05T03:52:49.071Z,26.62
2022-08-05T03:55:52.674Z,26.64
2022-08-05T03:57:28.951Z,26.64
2022-08-05T04:00:01.760Z,26.66
2022-08-05T04:02:38.796Z,26.70
2022-08-05T04:05:16.848Z,26.59
2022-08-05T04:07:57.269Z,26.74
2022-08-05T04:10:28.285Z,26.70
2022-08-05T04:13:00.136Z,26.75
2022-08-05T04:15:33.181Z,26.79
2022-08-05T04:18:07.250Z,26.78
2022-08-05T04:20:37.657Z,26.76
2022-08-05T04:23:12.463Z,26.87
2022-08-05T04:26:00.425Z,26.80
2022-08-05T04:28:31.722Z,26.89
2022-08-05T04:31:01.355Z,26.92
2022-08-05T04:33:54.941Z,26.58
2022-08-05T04:36:45.973Z,26.46
2022-08-05T04:39:07.863Z,26.45
2022-08-05T04:41:36.920Z,26.62
2022-08-05T04:44:09.258Z,26.44
2022-08-05T04:46:38.552Z,26.52
2022-08-05T04:49:12.299Z,26.48
2022-08-05T04:51:45.259Z,26.39
2022-08-05T04:54:14.659Z,26.52
2022-08-05T04:56:43.594Z,26.55
2022-08-05T04:59:24.140Z,26.43
2022-08-05T05:02:07.035Z,26.58
2022-08-05T05:04:38.171Z,26.64
2022-08-05T05:07:09.365Z,26.71
2022-08-05T05:09:38.099Z,26.80
2022-08-05T05:12:06.571Z,26.70
2022-08-05T05:14:36.314Z,26.93
2022-08-05T05:17:07.423Z,26.92
2022-08-05T05:19:44.302Z,27.01
2022-08-05T05:22:23.841Z,26.97
2022-08-05T05:24:57.052Z,26.87
2022-08-05T05:27:44.498Z,27.26
2022-08-05T05:30:30.975Z,27.20
2022-08-05T05:33:09.416Z,27.28
2022-08-05T05:35:46.659Z,27.56
2022-08-05T05:38:27.098Z,27.81
2022-08-05T05:40:56.531Z,27.95
2022-08-05T05:43:54.829Z,28.02
2022-08-05T05:46:17.540Z,27.93
2022-08-05T05:48:48.918Z,28.00
2022-08-05T05:51:22.114Z,27.96
2022-08-05T05:53:57.657Z,27.76
2022-08-05T05:56:32.471Z,28.11
2022-08-05T05:59:05.801Z,28.18
2022-08-05T06:01:38.075Z,28.05
2022-08-05T06:04:08.398Z,28.07
2022-08-05T06:06:41.695Z,28.03
2022-08-05T06:09:17.439Z,27.91
2022-08-05T06:11:59.507Z,27.92
2022-08-05T06:14:29.682Z,27.77
2022-08-05T06:16:57.903Z,27.61
2022-08-05T06:19:35.028Z,27.56
2022-08-05T06:22:03.911Z,27.49
2022-08-05T06:24:34.223Z,27.48
2022-08-05T06:27:04.146Z,27.44
2022-08-05T06:29:51.945Z,27.59
2022-08-05T06:32:25.013Z,27.66
2022-08-05T06:34:56.559Z,27.69
2022-08-05T06:37:57.951Z,27.71
2022-08-05T06:40:18.178Z,27.83
2022-08-05T06:42:51.998Z,27.96
2022-08-05T06:45:43.949Z,28.14
2022-08-05T06:48:36.148Z,28.23
2022-08-05T06:51:00.203Z,28.30
2022-08-05T06:53:29.324Z,28.28
2022-08-05T06:56:00.392Z,28.27
2022-08-05T06:58:29.670Z,28.28
2022-08-05T07:00:59.540Z,28.43
2022-08-05T07:03:32.381Z,28.40
2022-08-05T07:06:06.178Z,28.41
2022-08-05T07:08:48.077Z,28.23
2022-08-05T07:11:22.397Z,28.18
2022-08-05T07:14:15.426Z,28.25
2022-08-05T07:17:59.877Z,28.20
2022-08-05T07:22:30.111Z,28.18
2022-08-05T07:25:22.779Z,28.05
2022-08-05T07:27:58.017Z,28.12
2022-08-05T07:30:33.454Z,28.00
2022-08-05T07:33:05.208Z,27.97
2022-08-05T07:36:03.459Z,28.00
2022-08-05T07:38:32.015Z,28.10
2022-08-05T07:42:08.761Z,28.27
2022-08-05T07:43:55.063Z,28.40
2022-08-05T07:46:26.401Z,28.60
2022-08-05T07:49:01.908Z,28.77
2022-08-05T07:51:48.645Z,28.82
2022-08-05T07:54:31.619Z,28.76
2022-08-05T07:57:16.905Z,28.72
2022-08-05T07:59:52.373Z,28.79
2022-08-05T08:02:26.566Z,28.81
2022-08-05T08:04:55.763Z,28.88
2022-08-05T08:07:24.364Z,28.89
2022-08-05T08:09:56.728Z,28.88
2022-08-05T08:12:36.903Z,28.86
2022-08-05T08:15:15.115Z,28.86
2022-08-05T08:17:49.681Z,28.84
2022-08-05T08:20:44.125Z,28.85
2022-08-05T08:24:00.323Z,28.90
2022-08-05T08:26:02.839Z,28.97
2022-08-05T08:28:36.672Z,29.04
2022-08-05T08:31:07.506Z,29.25
2022-08-05T08:33:36.120Z,29.49
2022-08-05T08:36:38.708Z,29.62
2022-08-05T08:38:57.082Z,29.79
2022-08-05T08:41:50.858Z,30.22
2022-08-05T08:45:20.048Z,30.69
2022-08-05T08:47:34.590Z,31.01
2022-08-05T08:50:07.740Z,31.26
2022-08-05T08:52:52.869Z,31.42
2022-08-05T08:55:31.934Z,31.57
2022-08-05T08:58:12.917Z,31.78
2022-08-05T09:00:42.826Z,32.23
2022-08-05T09:03:16.313Z,32.38
2022-08-05T09:06:08.700Z,32.35
2022-08-05T09:08:40.239Z,32.21
2022-08-05T09:11:12.200Z,31.94
2022-08-05T09:14:00.960Z,31.65
2022-08-05T09:16:31.270Z,31.45
2022-08-05T09:19:00.926Z,31.32
2022-08-05T09:22:23.072Z,31.09
2022-08-05T09:24:24.280Z,30.90
2022-08-05T09:26:54.028Z,30.68
2022-08-05T09:29:30.896Z,30.51
2022-08-05T09:32:42.934Z,30.22
2022-08-05T09:34:58.364Z,30.06
2022-08-05T09:38:13.030Z,30.08
2022-08-05T09:40:32.025Z,30.23
2022-08-05T09:43:01.179Z,30.46
2022-08-05T09:46:07.238Z,30.65
2022-08-05T09:48:26.847Z,30.81
2022-08-05T09:50:58.802Z,30.95
2022-08-05T09:53:54.682Z,30.88
2022-08-05T09:56:25.915Z,30.87
2022-08-05T09:58:58.515Z,30.83
2022-08-05T10:01:31.887Z,30.83
2022-08-05T10:04:04.478Z,30.86
2022-08-05T10:06:41.442Z,30.95
2022-08-05T10:09:27.736Z,30.90
2022-08-05T10:12:18.506Z,30.77
2022-08-05T10:15:16.997Z,30.65
2022-08-05T10:18:07.839Z,30.68
2022-08-05T10:20:38.756Z,30.62
2022-08-05T10:23:34.504Z,30.88
2022-08-05T10:26:02.642Z,31.20
2022-08-05T10:28:31.285Z,31.44
2022-08-05T10:32:55.077Z,31.70
2022-08-05T10:33:54.187Z,31.72
2022-08-05T10:36:23.701Z,31.67
2022-08-05T10:39:01.563Z,31.82
2022-08-05T10:41:47.399Z,32.05
2022-08-05T10:44:19.361Z,32.23
2022-08-05T10:46:50.567Z,32.33
2022-08-05T10:49:27.519Z,32.56
2022-08-05T10:52:03.318Z,32.85
2022-08-05T10:55:03.460Z,33.21
2022-08-05T10:57:34.197Z,33.47
2022-08-05T11:00:18.652Z,33.55
2022-08-05T11:03:26.006Z,33.77
2022-08-05T11:06:15.769Z,33.89
2022-08-05T11:09:31.896Z,33.88
2022-08-05T11:12:54.398Z,34.01
2022-08-05T11:15:59.283Z,34.25
2022-08-05T11:18:29.702Z,34.29
2022-08-05T11:20:59.107Z,34.45
2022-08-05T11:24:02.605Z,34.61
2022-08-05T11:26:29.201Z,34.68
2022-08-05T11:29:12.729Z,34.72
2022-08-05T11:31:56.520Z,34.75
2022-08-05T11:34:51.051Z,34.98
2022-08-05T11:38:30.793Z,35.22
2022-08-05T11:41:14.196Z,35.34
2022-08-05T11:44:04.574Z,35.75
2022-08-05T11:46:58.265Z,35.90
2022-08-05T11:49:26.972Z,36.16
2022-08-05T11:51:57.329Z,36.16
2022-08-05T11:54:33.308Z,36.09
2022-08-05T11:57:07.987Z,36.23
2022-08-05T11:59:52.340Z,36.42
2022-08-05T12:02:31.645Z,36.54
2022-08-05T12:05:07.279Z,36.43
2022-08-05T12:08:07.389Z,36.22
2022-08-05T12:10:38.388Z,36.09
2022-08-05T12:13:15.882Z,36.14
2022-08-05T12:15:49.819Z,36.33
2022-08-05T12:18:20.638Z,36.66
2022-08-05T12:20:52.435Z,36.94
2022-08-05T12:23:20.306Z,37.19
2022-08-05T12:25:52.614Z,37.31
2022-08-05T12:28:35.217Z,37.13
2022-08-05T12:31:05.536Z,37.23
2022-08-05T12:33:36.440Z,37.38
2022-08-05T12:36:08.500Z,37.27
2022-08-05T12:38:39.684Z,37.08
2022-08-05T12:41:13.476Z,37.12
2022-08-05T12:43:53.201Z,37.32
2022-08-05T12:46:29.311Z,37.27
2022-08-05T12:49:01.527Z,37.38
2022-08-05T12:52:12.542Z,37.42
2022-08-05T12:54:34.685Z,37.16
2022-08-05T12:57:04.524Z,37.13
2022-08-05T12:59:46.952Z,37.00
2022-08-05T13:02:37.319Z,36.97
2022-08-05T13:05:12.494Z,36.55
2022-08-05T13:08:01.063Z,36.54
2022-08-05T13:10:32.671Z,36.48
2022-08-05T13:13:00.502Z,36.45
2022-08-05T13:15:41.749Z,36.36
2022-08-05T13:18:19.571Z,36.05
2022-08-05T13:20:50.343Z,35.95
2022-08-05T13:23:22.790Z,35.99
2022-08-05T13:25:59.338Z,36.02
2022-08-05T13:28:27.952Z,35.98
2022-08-05T13:30:57.315Z,35.99
2022-08-05T13:34:23.190Z,35.94
2022-08-05T13:36:14.913Z,35.92
2022-08-05T13:38:43.336Z,35.93
2022-08-05T13:41:11.940Z,35.67
2022-08-05T13:43:44.271Z,35.72
2022-08-05T13:47:01.778Z,35.82
2022-08-05T13:49:11.766Z,35.89
2022-08-05T13:51:46.067Z,36.07
2022-08-05T13:54:16.382Z,36.36
2022-08-05T13:56:51.080Z,36.38
2022-08-05T13:59:24.846Z,36.65
2022-08-05T14:01:56.550Z,37.12
2022-08-05T14:04:49.472Z,37.37
2022-08-05T14:07:55.424Z,37.49
2022-08-05T14:10:13.598Z,37.86
2022-08-05T14:12:48.687Z,37.66
2022-08-05T14:16:06.972Z,37.43
2022-08-05T14:18:06.170Z,37.58
2022-08-05T14:20:46.837Z,37.55
2022-08-05T14:23:23.403Z,37.83
2022-08-05T14:25:53.976Z,38.13
2022-08-05T14:28:26.445Z,38.21
2022-08-05T14:30:55.410Z,38.28
2022-08-05T14:33:24.135Z,37.76
2022-08-05T14:35:54.394Z,37.57
2022-08-05T14:38:32.093Z,37.05
2022-08-05T14:41:05.585Z,36.59
2022-08-05T14:44:02.059Z,36.37
2022-08-05T14:46:28.690Z,36.01
2022-08-05T14:49:03.457Z,35.52
2022-08-05T14:51:37.703Z,35.12
2022-08-05T14:54:28.066Z,34.74
2022-08-05T14:56:56.916Z,33.99
2022-08-05T14:59:25.225Z,32.92
2022-08-05T15:01:57.855Z,32.44
2022-08-05T15:04:28.882Z,31.83
2022-08-05T15:06:57.017Z,31.72
2022-08-05T15:09:52.509Z,31.29
2022-08-05T15:12:16.844Z,30.53
2022-08-05T15:14:50.510Z,30.39
2022-08-05T15:17:47.412Z,29.98
2022-08-05T15:20:18.886Z,29.91
2022-08-05T15:22:54.005Z,29.62
2022-08-05T15:25:52.869Z,29.16
2022-08-05T15:28:14.996Z,29.14
2022-08-05T15:30:45.504Z,28.75
2022-08-05T15:34:04.847Z,28.55
2022-08-05T15:36:03.939Z,28.18
2022-08-05T15:38:36.436Z,27.57
2022-08-05T15:41:21.853Z,27.47
2022-08-05T15:43:54.577Z,27.23
2022-08-05T15:46:24.002Z,27.08
2022-08-05T15:48:58.653Z,27.32
2022-08-05T15:52:04.107Z,27.74
2022-08-05T15:54:18.416Z,27.59
2022-08-05T15:56:47.645Z,27.07
2022-08-05T15:59:21.742Z,26.77
2022-08-05T16:01:52.296Z,26.56
2022-08-05T16:04:25.227Z,26.52
2022-08-05T16:06:55.791Z,26.40
2022-08-05T16:09:25.092Z,25.97
2022-08-05T16:11:54.487Z,26.06
2022-08-05T16:14:22.597Z,25.79
2022-08-05T16:16:50.877Z,25.75
2022-08-05T16:20:03.726Z,25.54
2022-08-05T16:22:10.679Z,25.28
2022-08-05T16:24:51.162Z,25.35
2022-08-05T16:27:32.018Z,25.26
2022-08-05T16:30:23.103Z,25.28
2022-08-05T16:32:51.895Z,24.99
2022-08-05T16:35:28.272Z,24.76
2022-08-05T16:38:03.095Z,24.69
2022-08-05T16:40:43.076Z,24.12
2022-08-05T16:43:23.736Z,23.86
2022-08-05T16:46:03.850Z,23.59
2022-08-05T16:48:38.924Z,23.47
2022-08-05T16:51:09.927Z,23.46
2022-08-05T16:54:03.019Z,23.42
2022-08-05T16:56:29.178Z,23.20
2022-08-05T16:59:00.757Z,23.39
2022-08-05T17:01:52.846Z,23.47
2022-08-05T17:04:18.778Z,23.41
2022-08-05T17:06:53.120Z,23.35
2022-08-05T17:09:23.193Z,23.44
2022-08-05T17:11:56.084Z,23.34
2022-08-05T17:14:37.516Z,23.63
2022-08-05T17:17:09.347Z,23.53
2022-08-05T17:19:46.119Z,23.46
2022-08-05T17:22:24.842Z,23.55
2022-08-05T17:24:57.836Z,23.57
2022-08-05T17:27:33.370Z,23.44
2022-08-05T17:30:07.137Z,23.67
2022-08-05T17:32:46.684Z,23.60
2022-08-05T17:35:20.557Z,23.46
2022-08-05T17:37:50.478Z,23.50
2022-08-05T17:40:22.603Z,23.51
2022-08-05T17:42:53.526Z,23.53
2022-08-05T17:45:38.286Z,23.62
2022-08-05T17:48:07.921Z,23.59
2022-08-05T17:50:36.232Z,23.53
2022-08-05T17:53:05.545Z,23.55
2022-08-05T17:55:39.464Z,23.67
2022-08-05T17:58:14.637Z,23.80
2022-08-05T18:00:50.860Z,23.76
2022-08-05T18:06:12.254Z,23.69
2022-08-05T18:08:46.206Z,23.67
2022-08-05T18:11:23.995Z,23.57
2022-08-05T18:13:54.858Z,23.31
2022-08-05T18:16:24.778Z,23.53
2022-08-05T18:18:52.736Z,23.38
2022-08-05T18:21:25.868Z,23.46
2022-08-05T18:23:54.635Z,23.46
2022-08-05T18:26:29.147Z,23.50
2022-08-05T18:29:00.277Z,23.49
2022-08-05T18:31:33.908Z,23.49
2022-08-05T18:34:05.934Z,23.43
2022-08-05T18:36:36.273Z,23.46
2022-08-05T18:39:09.771Z,23.37
2022-08-05T18:42:01.828Z,23.41
2022-08-05T18:44:55.363Z,23.36
2022-08-05T18:47:26.627Z,23.33
2022-08-05T18:50:13.206Z,23.34
2022-08-05T18:52:51.250Z,23.28
2022-08-05T18:55:20.310Z,23.24
2022-08-05T18:57:54.129Z,23.25
2022-08-05T19:00:31.024Z,23.20
2022-08-05T19:03:04.693Z,23.18
2022-08-05T19:06:11.127Z,23.15
2022-08-05T19:08:30.898Z,23.10
2022-08-05T19:11:04.614Z,22.97
2022-08-05T19:13:35.589Z,22.93
2022-08-05T19:16:05.688Z,22.90
2022-08-05T19:18:56.669Z,22.85
2022-08-05T19:21:27.356Z,22.82
2022-08-05T19:24:05.543Z,22.81
2022-08-05T19:26:54.372Z,22.87
2022-08-05T19:29:26.823Z,22.82
2022-08-05T19:32:04.521Z,22.81
2022-08-05T19:34:34.216Z,22.80
2022-08-05T19:37:02.598Z,22.83
2022-08-05T19:39:32.049Z,22.75
2022-08-05T19:42:15.299Z,22.82
2022-08-05T19:44:45.097Z,22.85
2022-08-05T19:47:15.097Z,22.84
2022-08-05T19:49:46.133Z,22.87
2022-08-05T19:52:30.418Z,22.87
2022-08-05T19:55:07.154Z,22.79
2022-08-05T19:58:14.400Z,22.77
2022-08-05T20:00:37.930Z,22.77
2022-08-05T20:03:09.079Z,22.75
2022-08-05T20:05:43.344Z,22.69
2022-08-05T20:08:18.794Z,22.71
2022-08-05T20:10:49.771Z,22.56
2022-08-05T20:13:30.322Z,22.55
2022-08-05T20:16:07.440Z,22.63
2022-08-05T20:18:36.419Z,22.47
2022-08-05T20:21:07.359Z,22.50
2022-08-05T20:23:40.206Z,22.55
2022-08-05T20:26:20.533Z,22.54
2022-08-05T20:28:50.692Z,22.54
2022-08-05T20:31:21.791Z,22.54
2022-08-05T20:33:51.848Z,22.56
2022-08-05T20:36:22.572Z,22.58
2022-08-05T20:38:54.634Z,22.56
2022-08-05T20:41:43.515Z,22.50
2022-08-05T20:44:28.927Z,22.55
2022-08-05T20:47:00.022Z,22.49
2022-08-05T20:49:28.311Z,22.56
2022-08-05T20:51:58.413Z,22.50
2022-08-05T20:54:43.173Z,22.56
2022-08-05T20:57:42.113Z,22.45
2022-08-05T21:00:19.706Z,22.59
2022-08-05T21:02:54.466Z,22.63
2022-08-05T21:05:24.251Z,22.64
2022-08-05T21:08:00.376Z,22.64
2022-08-05T21:10:28.747Z,22.58
2022-08-05T21:13:02.698Z,22.59
2022-08-05T21:15:38.515Z,22.50
2022-08-05T21:18:06.631Z,22.53
2022-08-05T21:20:35.064Z,22.47
2022-08-05T21:23:07.329Z,22.55
2022-08-05T21:25:35.287Z,22.48
2022-08-05T21:28:03.956Z,22.59
2022-08-05T21:30:32.168Z,22.57
2022-08-05T21:33:01.871Z,22.58
2022-08-05T21:35:43.825Z,22.58
2022-08-05T21:38:20.261Z,22.55
2022-08-05T21:40:48.419Z,22.56
2022-08-05T21:43:24.170Z,22.60
2022-08-05T21:45:57.553Z,22.54
2022-08-05T21:48:28.906Z,22.54
2022-08-05T21:50:57.509Z,22.54
2022-08-05T21:53:27.545Z,22.52
2022-08-05T21:56:06.136Z,22.43
2022-08-05T21:58:56.978Z,22.48
2022-08-05T22:01:26.181Z,22.34
2022-08-05T22:03:54.628Z,22.44
2022-08-05T22:06:35.600Z,22.36
2022-08-05T22:09:13.562Z,22.37
2022-08-05T22:11:47.346Z,22.35
2022-08-05T22:14:33.325Z,22.39
2022-08-05T22:17:06.675Z,22.34
2022-08-05T22:20:01.441Z,22.34
2022-08-05T22:22:28.083Z,22.29
2022-08-05T22:25:21.170Z,22.29
2022-08-05T22:28:10.225Z,22.27
2022-08-05T22:30:55.784Z,22.26
2022-08-05T22:33:56.523Z,22.25
2022-08-05T22:36:15.552Z,22.17
2022-08-05T22:38:47.950Z,22.07
2022-08-05T22:41:26.222Z,22.11
2022-08-05T22:44:09.279Z,22.05
2022-08-05T22:46:39.599Z,22.25
2022-08-05T22:49:23.058Z,22.13
2022-08-05T22:52:04.875Z,22.16
2022-08-05T22:54:34.868Z,21.98
2022-08-05T22:57:04.965Z,21.98
2022-08-05T22:59:45.057Z,21.89
2022-08-05T23:02:17.494Z,21.85
2022-08-05T23:04:51.138Z,21.85
2022-08-05T23:07:21.909Z,21.79
2022-08-05T23:09:58.004Z,21.87
2022-08-05T23:12:32.674Z,21.88
2022-08-05T23:15:03.369Z,21.84
2022-08-05T23:17:37.623Z,21.91
2022-08-05T23:20:10.501Z,21.84
2022-08-05T23:22:47.666Z,21.84
2022-08-05T23:25:51.863Z,21.82
2022-08-05T23:28:07.767Z,21.86
2022-08-05T23:30:39.671Z,21.78
2022-08-05T23:33:19.019Z,21.63
2022-08-05T23:35:56.107Z,21.68
2022-08-05T23:38:25.938Z,21.70
2022-08-05T23:40:54.790Z,21.67
2022-08-05T23:43:49.711Z,21.57
2022-08-05T23:46:21.196Z,21.53
2022-08-05T23:49:01.171Z,21.50
2022-08-05T23:51:53.876Z,21.47
2022-08-05T23:54:25.606Z,21.45
2022-08-05T23:56:55.887Z,21.43
